createdAt,value
2018-05-26T00:00:28.877Z,95675
2018-05-26T00:02:56.948Z,95675
2018-05-26T00:05:24.995Z,95678
2018-05-26T00:07:53.077Z,95678
2018-05-26T00:10:21.134Z,95690
2018-05-26T00:12:49.204Z,95672
2018-05-26T00:15:17.260Z,95685
2018-05-26T00:17:45.364Z,95679
2018-05-26T00:20:14.544Z,95679
2018-05-26T00:22:48.045Z,95679
2018-05-26T00:25:16.100Z,95672
2018-05-26T00:27:44.880Z,95675
2018-05-26T00:30:12.935Z,95676
2018-05-26T00:32:41.028Z,95684
2018-05-26T00:35:09.080Z,95678
2018-05-26T00:37:37.144Z,95680
2018-05-26T00:40:05.245Z,95687
2018-05-26T00:42:33.312Z,95694
2018-05-26T00:45:01.392Z,95686
2018-05-26T00:47:29.456Z,95678
2018-05-26T00:49:57.515Z,95673
2018-05-26T00:52:25.584Z,95673
2018-05-26T00:54:53.661Z,95674
2018-05-26T00:57:21.732Z,95670
2018-05-26T00:59:49.802Z,95662
2018-05-26T01:02:17.864Z,95665
2018-05-26T01:04:45.928Z,95668
2018-05-26T01:07:14.001Z,95667
2018-05-26T01:09:42.084Z,95667
2018-05-26T01:12:10.148Z,95662
2018-05-26T01:14:38.203Z,95664
2018-05-26T01:17:06.288Z,95665
2018-05-26T01:19:34.345Z,95677
2018-05-26T01:22:02.414Z,95683
2018-05-26T01:24:30.515Z,95681
2018-05-26T01:26:58.607Z,95676
2018-05-26T01:29:26.760Z,95679
2018-05-26T01:31:54.828Z,95685
2018-05-26T01:34:23.000Z,95687
2018-05-26T01:36:51.059Z,95692
2018-05-26T01:39:19.139Z,95698
2018-05-26T01:41:47.212Z,95703
2018-05-26T01:44:16.100Z,95693
2018-05-26T01:46:44.160Z,95697
2018-05-26T01:49:12.232Z,95700
2018-05-26T01:51:40.287Z,95705
2018-05-26T01:54:09.208Z,95711
2018-05-26T01:56:37.281Z,95710
2018-05-26T01:59:05.393Z,95693
2018-05-26T02:01:33.422Z,95701
2018-05-26T02:04:01.488Z,95699
2018-05-26T02:06:29.552Z,95702
2018-05-26T02:08:57.636Z,95708
2018-05-26T02:11:25.708Z,95700
2018-05-26T02:13:53.777Z,95703
2018-05-26T02:16:21.836Z,95700
2018-05-26T02:18:49.905Z,95697
2018-05-26T02:21:17.988Z,95697
2018-05-26T02:23:46.522Z,95701
2018-05-26T02:26:14.581Z,95690
2018-05-26T02:28:42.652Z,95698
2018-05-26T02:31:10.784Z,95689
2018-05-26T02:33:38.860Z,95687
2018-05-26T02:36:06.916Z,95691
2018-05-26T02:38:34.988Z,95698
2018-05-26T02:41:03.067Z,95696
2018-05-26T02:43:31.236Z,95703
2018-05-26T02:45:59.300Z,95694
2018-05-26T02:48:28.491Z,95698
2018-05-26T02:50:56.559Z,95699
2018-05-26T02:53:24.636Z,95697
2018-05-26T02:55:52.720Z,95698
2018-05-26T02:58:20.888Z,95704
2018-05-26T03:00:48.965Z,95702
2018-05-26T03:03:17.026Z,95702
2018-05-26T03:05:50.523Z,95702
2018-05-26T03:08:24.153Z,95711
2018-05-26T03:10:57.738Z,95705
2018-05-26T03:13:32.037Z,95704
2018-05-26T03:29:26.965Z,95708
2018-05-26T03:31:55.036Z,95724
2018-05-26T03:34:23.108Z,95716
2018-05-26T03:36:51.164Z,95710
2018-05-26T03:39:19.244Z,95715
2018-05-26T03:41:47.384Z,95700
2018-05-26T03:44:15.441Z,95710
2018-05-26T03:46:43.503Z,95707
2018-05-26T03:49:11.563Z,95700
2018-05-26T03:51:39.630Z,95704
2018-05-26T03:54:07.688Z,95708
2018-05-26T03:56:53.296Z,95715
2018-05-26T04:02:27.728Z,95716
2018-05-26T04:04:55.785Z,95716
2018-05-26T04:07:23.845Z,95720
2018-05-26T04:09:51.913Z,95734
2018-05-26T04:12:19.984Z,95732
2018-05-26T04:14:48.044Z,95734
2018-05-26T04:17:16.116Z,95738
2018-05-26T04:19:44.168Z,95732
2018-05-26T04:22:12.244Z,95729
2018-05-26T04:24:40.293Z,95738
2018-05-26T04:27:08.369Z,95741
2018-05-26T04:29:36.424Z,95744
2018-05-26T04:32:04.501Z,95749
2018-05-26T04:34:32.588Z,95750
2018-05-26T04:37:00.669Z,95748
2018-05-26T04:39:28.721Z,95742
2018-05-26T04:41:56.793Z,95739
2018-05-26T04:44:24.848Z,95746
2018-05-26T04:46:52.919Z,95743
2018-05-26T04:49:20.980Z,95741
2018-05-26T04:51:49.043Z,95748
2018-05-26T04:54:18.129Z,95739
2018-05-26T04:56:46.204Z,95747
2018-05-26T04:59:14.269Z,95747
2018-05-26T05:01:42.336Z,95738
2018-05-26T05:04:10.387Z,95744
2018-05-26T05:06:38.457Z,95737
2018-05-26T05:09:06.508Z,95742
2018-05-26T05:11:34.576Z,95749
2018-05-26T05:14:02.636Z,95735
2018-05-26T05:16:30.700Z,95745
2018-05-26T05:18:58.760Z,95748
2018-05-26T05:21:26.819Z,95740
2018-05-26T05:23:54.880Z,95750
2018-05-26T05:26:22.944Z,95748
2018-05-26T05:28:51.008Z,95748
2018-05-26T05:31:19.079Z,95742
2018-05-26T05:33:47.140Z,95755
2018-05-26T05:36:15.226Z,95749
2018-05-26T05:38:43.280Z,95751
2018-05-26T05:41:11.380Z,95748
2018-05-26T05:43:39.454Z,95747
2018-05-26T05:46:07.524Z,95750
2018-05-26T05:48:35.593Z,95748
2018-05-26T05:51:03.664Z,95758
2018-05-26T05:53:32.636Z,95754
2018-05-26T05:56:00.697Z,95761
2018-05-26T05:58:28.768Z,95767
2018-05-26T06:00:56.819Z,95765
2018-05-26T06:03:24.895Z,95764
2018-05-26T06:05:52.956Z,95763
2018-05-26T06:08:21.028Z,95769
2018-05-26T06:10:49.089Z,95777
2018-05-26T06:13:17.206Z,95777
2018-05-26T06:15:45.208Z,95771
2018-05-26T06:18:13.276Z,95781
2018-05-26T06:20:41.332Z,95777
2018-05-26T06:23:09.413Z,95773
2018-05-26T06:25:37.501Z,95781
2018-05-26T06:28:05.573Z,95783
2018-05-26T06:30:33.623Z,95792
2018-05-26T06:33:01.693Z,95787
2018-05-26T06:35:29.748Z,95797
2018-05-26T06:37:57.815Z,95791
2018-05-26T06:40:25.876Z,95783
2018-05-26T06:42:53.958Z,95778
2018-05-26T06:45:22.072Z,95778
2018-05-26T06:47:50.076Z,95780
2018-05-26T06:50:19.260Z,95780
2018-05-26T06:58:40.892Z,95782
2018-05-26T07:01:08.953Z,95781
2018-05-26T07:03:37.021Z,95785
2018-05-26T07:06:05.086Z,95783
2018-05-26T07:08:33.167Z,95784
2018-05-26T07:11:01.236Z,95783
2018-05-26T07:13:29.308Z,95781
2018-05-26T07:15:57.360Z,95791
2018-05-26T07:18:25.430Z,95791
2018-05-26T07:20:53.498Z,95773
2018-05-26T07:23:21.561Z,95783
2018-05-26T07:25:49.949Z,95780
2018-05-26T07:28:18.316Z,95787
2018-05-26T07:30:46.396Z,95787
2018-05-26T07:33:14.465Z,95793
2018-05-26T07:35:42.520Z,95788
2018-05-26T07:38:10.598Z,95789
2018-05-26T07:40:38.663Z,95789
2018-05-26T07:43:06.746Z,95783
2018-05-26T07:45:34.805Z,95785
2018-05-26T07:48:02.872Z,95792
2018-05-26T07:50:30.937Z,95790
2018-05-26T07:52:59.000Z,95794
2018-05-26T07:55:27.056Z,95788
2018-05-26T07:57:55.135Z,95788
2018-05-26T08:00:23.209Z,95797
2018-05-26T08:02:51.259Z,95798
2018-05-26T08:05:20.447Z,95799
2018-05-26T08:07:48.509Z,95799
2018-05-26T08:10:16.560Z,95785
2018-05-26T08:12:44.633Z,95791
2018-05-26T08:15:12.692Z,95788
2018-05-26T08:17:40.761Z,95791
2018-05-26T08:20:08.816Z,95789
2018-05-26T08:22:36.894Z,95787
2018-05-26T08:25:04.953Z,95785
2018-05-26T08:27:33.016Z,95793
2018-05-26T08:30:01.117Z,95789
2018-05-26T08:32:29.165Z,95786
2018-05-26T08:34:57.219Z,95787
2018-05-26T08:37:25.287Z,95789
2018-05-26T08:39:53.342Z,95789
2018-05-26T08:42:21.413Z,95788
2018-05-26T08:44:49.468Z,95803
2018-05-26T08:47:17.536Z,95795
2018-05-26T08:49:45.588Z,95799
2018-05-26T08:52:13.650Z,95800
2018-05-26T08:54:41.712Z,95806
2018-05-26T08:57:09.760Z,95801
2018-05-26T08:59:37.829Z,95800
2018-05-26T09:02:05.885Z,95800
2018-05-26T09:04:33.952Z,95804
2018-05-26T09:07:02.013Z,95794
2018-05-26T09:09:30.076Z,95801
2018-05-26T09:11:58.144Z,95796
2018-05-26T09:14:26.723Z,95801
2018-05-26T09:16:54.849Z,95798
2018-05-26T09:19:22.916Z,95800
2018-05-26T09:21:51.504Z,95799
2018-05-26T09:24:19.577Z,95803
2018-05-26T09:26:47.641Z,95808
2018-05-26T09:29:15.736Z,95810
2018-05-26T09:31:43.799Z,95809
2018-05-26T09:34:11.872Z,95810
2018-05-26T09:36:39.945Z,95803
2018-05-26T09:39:08.020Z,95813
2018-05-26T09:41:36.078Z,95803
2018-05-26T09:44:04.160Z,95811
2018-05-26T09:46:32.828Z,95812
2018-05-26T09:49:00.889Z,95810
2018-05-26T09:51:28.955Z,95805
2018-05-26T09:53:57.025Z,95814
2018-05-26T09:56:25.093Z,95811
2018-05-26T09:58:53.172Z,95801
2018-05-26T10:01:22.008Z,95796
2018-05-26T10:03:50.069Z,95808
2018-05-26T10:06:18.134Z,95804
2018-05-26T10:08:46.201Z,95803
2018-05-26T10:11:14.277Z,95801
2018-05-26T10:13:42.332Z,95804
2018-05-26T10:16:10.397Z,95799
2018-05-26T10:18:38.468Z,95792
2018-05-26T10:21:06.532Z,95801
2018-05-26T10:23:34.604Z,95792
2018-05-26T10:26:02.681Z,95793
2018-05-26T10:28:30.765Z,95792
2018-05-26T10:30:58.830Z,95793
2018-05-26T10:33:26.904Z,95804
2018-05-26T10:35:54.965Z,95788
2018-05-26T10:38:23.029Z,95799
2018-05-26T10:40:51.085Z,95791
2018-05-26T10:43:19.176Z,95797
2018-05-26T10:46:04.844Z,95789
2018-05-26T10:48:32.922Z,95789
2018-05-26T10:51:00.964Z,95788
2018-05-26T10:53:29.070Z,95787
2018-05-26T10:55:57.133Z,95797
2018-05-26T10:58:25.181Z,95794
2018-05-26T11:00:53.504Z,95786
2018-05-26T11:03:22.692Z,95788
2018-05-26T11:05:50.743Z,95783
2018-05-26T11:08:18.827Z,95781
2018-05-26T11:10:46.876Z,95797
2018-05-26T11:13:14.943Z,95789
2018-05-26T11:15:42.995Z,95791
2018-05-26T11:18:11.043Z,95787
2018-05-26T11:20:39.104Z,95789
2018-05-26T11:23:07.157Z,95788
2018-05-26T11:25:35.309Z,95786
2018-05-26T11:28:03.280Z,95783
2018-05-26T11:30:31.354Z,95777
2018-05-26T11:32:59.396Z,95781
2018-05-26T11:35:28.585Z,95783
2018-05-26T11:37:56.640Z,95783
2018-05-26T11:40:24.700Z,95794
2018-05-26T11:42:53.349Z,95784
2018-05-26T11:45:21.426Z,95782
2018-05-26T11:47:49.480Z,95789
2018-05-26T11:50:17.531Z,95777
2018-05-26T11:52:45.596Z,95781
2018-05-26T11:55:13.652Z,95786
2018-05-26T11:57:41.726Z,95786
2018-05-26T12:00:09.792Z,95788
2018-05-26T12:02:37.856Z,95783
2018-05-26T12:05:06.514Z,95786
2018-05-26T12:07:34.552Z,95787
2018-05-26T12:10:02.620Z,95787
2018-05-26T12:12:30.688Z,95787
2018-05-26T12:14:58.749Z,95785
2018-05-26T12:17:26.832Z,95781
2018-05-26T12:19:54.868Z,95775
2018-05-26T12:22:23.893Z,95781
2018-05-26T12:24:51.952Z,95784
2018-05-26T12:27:20.005Z,95786
2018-05-26T12:29:48.060Z,95780
2018-05-26T12:32:16.872Z,95784
2018-05-26T12:34:44.937Z,95790
2018-05-26T12:37:13.001Z,95786
2018-05-26T12:39:41.069Z,95781
2018-05-26T12:42:09.130Z,95785
2018-05-26T12:44:37.209Z,95784
2018-05-26T12:47:05.256Z,95783
2018-05-26T12:49:33.328Z,95782
2018-05-26T12:52:01.381Z,95777
2018-05-26T12:54:29.445Z,95787
2018-05-26T12:56:57.496Z,95781
2018-05-26T12:59:25.556Z,95778
2018-05-26T13:01:54.117Z,95781
2018-05-26T13:04:22.180Z,95779
2018-05-26T13:06:50.228Z,95778
2018-05-26T13:09:18.289Z,95778
2018-05-26T13:11:46.339Z,95774
2018-05-26T13:14:14.407Z,95775
2018-05-26T13:16:42.457Z,95772
2018-05-26T13:19:11.143Z,95775
2018-05-26T13:21:39.181Z,95772
2018-05-26T13:24:07.245Z,95771
2018-05-26T13:26:35.293Z,95768
2018-05-26T13:29:03.356Z,95777
2018-05-26T13:31:31.409Z,95774
2018-05-26T13:33:59.462Z,95759
2018-05-26T13:36:28.773Z,95764
2018-05-26T13:38:56.834Z,95761
2018-05-26T13:41:24.888Z,95759
2018-05-26T13:43:52.936Z,95760
2018-05-26T13:46:21.005Z,95765
2018-05-26T13:48:49.058Z,95753
2018-05-26T13:51:17.172Z,95759
2018-05-26T13:53:45.177Z,95755
2018-05-26T13:56:13.492Z,95758
2018-05-26T13:58:41.484Z,95750
2018-05-26T14:01:09.550Z,95748
2018-05-26T14:03:37.612Z,95752
2018-05-26T14:06:05.673Z,95750
2018-05-26T14:08:33.732Z,95759
2018-05-26T14:11:01.873Z,95750
2018-05-26T14:13:29.860Z,95745
2018-05-26T14:15:57.920Z,95744
2018-05-26T14:18:25.973Z,95743
2018-05-26T14:20:54.892Z,95735
2018-05-26T14:23:22.949Z,95742
2018-05-26T14:25:51.012Z,95736
2018-05-26T14:28:19.065Z,95732
2018-05-26T14:30:47.128Z,95726
2018-05-26T14:33:15.204Z,95728
2018-05-26T14:35:43.260Z,95729
2018-05-26T14:38:11.314Z,95729
2018-05-26T14:40:39.377Z,95728
2018-05-26T14:43:07.428Z,95729
2018-05-26T14:45:35.489Z,95717
2018-05-26T14:48:03.533Z,95709
2018-05-26T14:50:31.604Z,95718
2018-05-26T14:52:59.651Z,95718
2018-05-26T14:55:28.489Z,95725
2018-05-26T14:57:56.549Z,95715
2018-05-26T15:00:25.220Z,95721
2018-05-26T15:02:53.273Z,95726
2018-05-26T15:05:22.894Z,95728
2018-05-26T15:07:50.931Z,95727
2018-05-26T15:10:18.993Z,95728
2018-05-26T15:12:47.149Z,95734
2018-05-26T15:15:15.129Z,95732
2018-05-26T15:17:43.185Z,95735
2018-05-26T15:20:11.245Z,95743
2018-05-26T15:22:39.302Z,95739
2018-05-26T15:25:07.363Z,95738
2018-05-26T15:27:35.417Z,95730
2018-05-26T15:30:03.476Z,95735
2018-05-26T15:32:31.529Z,95725
2018-05-26T15:34:59.593Z,95715
2018-05-26T15:37:28.524Z,95724
2018-05-26T15:39:56.585Z,95721
2018-05-26T15:42:25.692Z,95727
2018-05-26T15:44:53.713Z,95716
2018-05-26T15:47:21.774Z,95725
2018-05-26T15:49:49.826Z,95719
2018-05-26T15:52:17.882Z,95729
2018-05-26T15:54:45.948Z,95724
2018-05-26T15:57:13.996Z,95711
2018-05-26T15:59:42.049Z,95726
2018-05-26T16:02:10.120Z,95720
2018-05-26T16:04:38.166Z,95720
2018-05-26T16:07:06.217Z,95715
2018-05-26T16:09:34.268Z,95721
2018-05-26T16:12:02.424Z,95720
2018-05-26T16:14:30.478Z,95718
2018-05-26T16:16:58.536Z,95721
2018-05-26T16:19:26.681Z,95718
2018-05-26T16:21:55.884Z,95720
2018-05-26T16:24:23.993Z,95725
2018-05-26T16:26:52.057Z,95717
2018-05-26T16:29:20.113Z,95715
2018-05-26T16:31:48.170Z,95720
2018-05-26T16:34:16.229Z,95722
2018-05-26T16:36:44.309Z,95717
2018-05-26T16:39:12.351Z,95715
2018-05-26T16:41:40.424Z,95725
2018-05-26T16:44:08.476Z,95717
2018-05-26T16:46:36.532Z,95719
2018-05-26T16:49:04.589Z,95725
2018-05-26T16:51:33.005Z,95721
2018-05-26T16:54:01.091Z,95724
2018-05-26T16:56:29.148Z,95721
2018-05-26T16:58:57.217Z,95724
2018-05-26T17:01:26.388Z,95724
2018-05-26T17:03:54.440Z,95723
2018-05-26T17:06:22.500Z,95729
2018-05-26T17:08:50.552Z,95726
2018-05-26T17:11:18.617Z,95725
2018-05-26T17:13:46.680Z,95725
2018-05-26T17:16:14.744Z,95716
2018-05-26T17:18:42.797Z,95714
2018-05-26T17:21:10.865Z,95716
2018-05-26T17:23:38.908Z,95717
2018-05-26T17:26:06.965Z,95719
2018-05-26T17:28:35.015Z,95716
2018-05-26T17:31:03.072Z,95719
2018-05-26T17:33:31.124Z,95720
2018-05-26T17:35:59.180Z,95716
2018-05-26T17:38:27.228Z,95728
2018-05-26T17:40:55.288Z,95721
2018-05-26T17:43:23.385Z,95721
2018-05-26T17:45:51.412Z,95724
2018-05-26T17:48:19.525Z,95729
2018-05-26T17:50:47.584Z,95729
2018-05-26T17:53:15.636Z,95735
2018-05-26T17:55:43.701Z,95741
2018-05-26T17:58:11.761Z,95736
2018-05-26T18:00:39.826Z,95736
2018-05-26T18:03:07.882Z,95739
2018-05-26T18:05:35.944Z,95734
2018-05-26T18:08:04.043Z,95736
2018-05-26T18:10:32.040Z,95735
2018-05-26T18:13:00.100Z,95737
2018-05-26T18:15:28.581Z,95737
2018-05-26T18:17:57.008Z,95740
2018-05-26T18:20:25.068Z,95743
2018-05-26T18:22:53.128Z,95738
2018-05-26T18:25:21.269Z,95743
2018-05-26T18:27:49.331Z,95742
2018-05-26T18:30:17.532Z,95746
2018-05-26T18:32:45.637Z,95748
2018-05-26T18:35:13.652Z,95750
2018-05-26T18:37:41.710Z,95755
2018-05-26T18:40:09.855Z,95756
2018-05-26T18:42:37.905Z,95762
2018-05-26T18:45:05.955Z,95754
2018-05-26T18:47:34.021Z,95760
2018-05-26T18:50:02.097Z,95758
2018-05-26T18:52:30.161Z,95756
2018-05-26T18:54:58.361Z,95758
2018-05-26T18:57:27.428Z,95760
2018-05-26T18:59:55.483Z,95763
2018-05-26T19:02:23.549Z,95771
2018-05-26T19:04:51.596Z,95774
2018-05-26T19:07:19.656Z,95774
2018-05-26T19:09:47.704Z,95779
2018-05-26T19:12:15.781Z,95784
2018-05-26T19:14:43.836Z,95781
2018-05-26T19:17:11.896Z,95788
2018-05-26T19:19:39.945Z,95788
2018-05-26T19:22:08.005Z,95786
2018-05-26T19:24:36.060Z,95789
2018-05-26T19:27:04.129Z,95788
2018-05-26T19:29:32.184Z,95787
2018-05-26T19:32:00.248Z,95781
2018-05-26T19:34:28.859Z,95798
2018-05-26T19:36:57.698Z,95796
2018-05-26T19:39:25.744Z,95795
2018-05-26T19:41:54.291Z,95794
2018-05-26T19:44:22.429Z,95794
2018-05-26T19:46:50.511Z,95794
2018-05-26T19:49:18.564Z,95791
2018-05-26T19:51:46.635Z,95801
2018-05-26T19:54:14.688Z,95804
2018-05-26T19:56:42.755Z,95795
2018-05-26T19:59:10.812Z,95790
2018-05-26T20:01:38.877Z,95794
2018-05-26T20:04:06.929Z,95798
2018-05-26T20:06:34.992Z,95791
2018-05-26T20:09:03.044Z,95798
2018-05-26T20:11:31.113Z,95807
2018-05-26T20:13:59.174Z,95805
2018-05-26T20:16:29.281Z,95803
2018-05-26T20:18:58.110Z,95805
2018-05-26T20:21:26.173Z,95810
2018-05-26T20:23:54.229Z,95811
2018-05-26T20:26:22.294Z,95808
2018-05-26T20:28:50.352Z,95809
2018-05-26T20:31:18.465Z,95813
2018-05-26T20:33:46.492Z,95818
2018-05-26T20:36:14.541Z,95818
2018-05-26T20:38:42.608Z,95817
2018-05-26T20:41:10.670Z,95818
2018-05-26T20:43:38.788Z,95821
2018-05-26T20:46:06.791Z,95816
2018-05-26T20:48:34.856Z,95819
2018-05-26T20:51:02.909Z,95822
2018-05-26T20:53:30.985Z,95825
2018-05-26T20:55:59.653Z,95823
2018-05-26T20:58:29.692Z,95821
2018-05-26T21:00:58.502Z,95821
2018-05-26T21:03:26.564Z,95814
2018-05-26T21:05:54.616Z,95823
2018-05-26T21:08:22.676Z,95817
2018-05-26T21:10:50.775Z,95822
2018-05-26T21:13:18.863Z,95815
2018-05-26T21:15:47.071Z,95821
2018-05-26T21:18:15.141Z,95812
2018-05-26T21:20:43.192Z,95815
2018-05-26T21:23:11.260Z,95812
2018-05-26T21:25:39.316Z,95807
2018-05-26T21:28:07.435Z,95814
2018-05-26T21:30:35.493Z,95812
2018-05-26T21:33:03.556Z,95817
2018-05-26T21:35:31.613Z,95817
2018-05-26T21:38:00.572Z,95821
2018-05-26T21:40:29.617Z,95825
2018-05-26T21:42:58.828Z,95822
2018-05-26T21:45:26.884Z,95829
2018-05-26T21:47:54.956Z,95831
2018-05-26T21:50:23.009Z,95830
2018-05-26T21:52:51.076Z,95835
2018-05-26T21:55:20.036Z,95837
2018-05-26T21:57:48.104Z,95837
2018-05-26T22:00:16.165Z,95832
2018-05-26T22:02:44.240Z,95835
2018-05-26T22:05:12.308Z,95837
2018-05-26T22:07:40.378Z,95842
2018-05-26T22:10:08.747Z,95841
2018-05-26T22:12:36.795Z,95840
2018-05-26T22:15:04.861Z,95839
2018-05-26T22:17:32.934Z,95842
2018-05-26T22:20:00.984Z,95845
2018-05-26T22:22:29.942Z,95847
2018-05-26T22:24:59.125Z,95846
2018-05-26T22:27:28.325Z,95846
2018-05-26T22:29:56.381Z,95847
2018-05-26T22:32:24.443Z,95852
2018-05-26T22:34:52.500Z,95855
2018-05-26T22:37:20.560Z,95849
2018-05-26T22:39:48.636Z,95844
2018-05-26T22:42:17.301Z,95847
2018-05-26T22:44:45.336Z,95845
2018-05-26T22:47:13.401Z,95847
2018-05-26T22:49:41.465Z,95842
2018-05-26T22:52:10.460Z,95844
2018-05-26T22:54:38.513Z,95848
2018-05-26T22:57:06.564Z,95842
2018-05-26T22:59:34.633Z,95836
2018-05-26T23:02:02.684Z,95842
2018-05-26T23:04:32.442Z,95828
2018-05-26T23:07:00.506Z,95826
2018-05-26T23:09:29.695Z,95830
2018-05-26T23:11:57.754Z,95825
2018-05-26T23:14:27.027Z,95812
2018-05-26T23:16:55.119Z,95817
2018-05-26T23:19:23.184Z,95806
2018-05-26T23:21:51.245Z,95808
2018-05-26T23:24:19.304Z,95808
2018-05-26T23:26:47.365Z,95795
2018-05-26T23:29:15.434Z,95802
2018-05-26T23:31:43.492Z,95795
2018-05-26T23:34:11.552Z,95790
2018-05-26T23:36:39.608Z,95782
2018-05-26T23:39:07.675Z,95793
2018-05-26T23:41:35.735Z,95788
2018-05-26T23:44:03.800Z,95787
2018-05-26T23:46:31.856Z,95790
2018-05-26T23:48:59.930Z,95784
2018-05-26T23:51:28.465Z,95786
2018-05-26T23:54:00.080Z,95789
2018-05-26T23:56:28.521Z,95782
2018-05-26T23:58:56.596Z,95783
